Elkton, Colorado
Current Conditions -  °F | °C
As of 4:56 AM on Sunday 21 Dec 2014 (Local Time) from KCWN Reporting Station
Broken Clouds Broken Clouds  
Wind Chill: 30°   Ceiling: 23000
Heat Index: 36°   Visibility: 10mi
Dew Point: 15°   Wind: 7mph
Humidity: 42%   Direction: 190°S
Pressure: 29.79"   Gusts: NA
Location:  38.6816°N, 105.071°W
Report Text: KCWN 211156Z AUTO 19006KT 10SM BKN230 02/M09 A2979 RMK AO2 SLP082 T00221095 10028 20004 57021
Loading
Personal Weather Stations






























Interactive Weather Map New forecast layout! Learn more

10-Day Weather Forecast

Advertisements
Track Severe Weather on mobile